Time;durP1;ratioP1;P1;durP2;ratioP2;P2;SDS_P1;SDS_P2;PMS_P1;PMS_P2;Temp;Humidity;BMP_temperature;BMP_pressure;BME280_temperature;BME280_humidity;BME280_pressure;Samples;Min_cycle;Max_cycle;Signal;HPM_P1;HPM_P2
2022/08/12 00:44:32;;;;;;;2.38;1.42;;;20.90;79.20;;;;;;10462811;28;20136;-85
2022/08/12 00:49:35;;;;;;;1.73;0.95;;;20.80;79.80;;;;;;10446768;28;20049;-85
2022/08/12 00:54:50;;;;;;;3.67;0.98;;;20.70;80.00;;;;;;10447820;28;20055;-85
2022/08/12 01:00:01;;;;;;;3.83;1.25;;;20.80;80.10;;;;;;10441700;28;20063;-86
2022/08/12 01:16:03;;;;;;;1.40;0.60;;;20.70;78.80;;;;;;10450155;28;20048;-86
2022/08/12 01:21:26;;;;;;;4.63;0.85;;;20.60;78.20;;;;;;10450847;28;20056;-86
2022/08/12 01:26:31;;;;;;;1.75;0.63;;;20.70;78.10;;;;;;10459350;28;20049;-86
2022/08/12 01:31:36;;;;;;;1.52;0.70;;;20.70;78.60;;;;;;10447394;28;20519;-85
2022/08/12 01:36:54;;;;;;;2.58;0.60;;;20.70;78.00;;;;;;10442527;28;20061;-85
2022/08/12 01:42:03;;;;;;;0.93;0.50;;;20.70;78.10;;;;;;10447403;28;20055;-85
2022/08/12 01:47:22;;;;;;;1.60;0.55;;;20.70;77.80;;;;;;10418582;28;20064;-85
2022/08/12 01:52:54;;;;;;;1.45;0.90;;;20.70;78.60;;;;;;10448525;28;20055;-85
2022/08/12 01:58:28;;;;;;;5.75;1.02;;;20.60;77.90;;;;;;10441635;28;20052;-85
2022/08/12 02:14:50;;;;;;;1.77;0.80;;;20.30;80.00;;;;;;10455826;28;20467;-86
2022/08/12 02:20:31;;;;;;;1.20;0.60;;;20.30;80.90;;;;;;10439399;28;20407;-85
2022/08/12 02:25:56;;;;;;;2.75;0.68;;;20.20;80.40;;;;;;10454798;28;20045;-86
2022/08/12 02:31:03;;;;;;;7.78;1.10;;;20.00;82.50;;;;;;10459217;28;20058;-85
2022/08/12 02:36:05;;;;;;;1.52;1.10;;;19.90;83.80;;;;;;10457706;28;20041;-86
2022/08/12 02:41:10;;;;;;;3.17;1.33;;;19.80;84.70;;;;;;10449902;28;20067;-85
2022/08/12 02:46:16;;;;;;;1.40;0.50;;;19.60;85.40;;;;;;10437756;28;20050;-86
2022/08/12 02:51:28;;;;;;;3.03;0.98;;;19.50;85.90;;;;;;10427119;28;20044;-85
2022/08/12 02:56:29;;;;;;;3.88;0.82;;;19.90;87.30;;;;;;10454642;28;20092;-85
2022/08/12 03:01:34;;;;;;;5.05;0.80;;;19.30;86.70;;;;;;10441540;28;20063;-85
2022/08/12 03:06:56;;;;;;;1.23;0.65;;;19.30;86.40;;;;;;10461081;28;20062;-85
2022/08/12 03:12:04;;;;;;;4.30;0.70;;;19.20;86.60;;;;;;10452517;28;20045;-85
2022/08/12 03:17:16;;;;;;;2.28;0.80;;;19.00;86.80;;;;;;10417997;28;20112;-85
2022/08/12 03:22:20;;;;;;;1.52;0.70;;;19.10;87.30;;;;;;10450428;28;20533;-84
2022/08/12 03:27:23;;;;;;;1.40;0.88;;;18.90;87.70;;;;;;10434592;28;20059;-85
2022/08/12 03:32:27;;;;;;;2.08;1.02;;;18.90;87.90;;;;;;10443634;28;20059;-85
2022/08/12 03:37:38;;;;;;;1.40;0.70;;;18.70;88.30;;;;;;10441661;28;20061;-85
2022/08/12 04:04:16;;;;;;;1.50;0.75;;;18.40;90.10;;;;;;10432191;28;20056;-85
2022/08/12 04:09:20;;;;;;;6.30;0.75;;;18.50;90.30;;;;;;10427748;28;20049;-86
2022/08/12 04:14:24;;;;;;;1.98;0.88;;;18.40;90.70;;;;;;10445281;28;20048;-86
2022/08/12 04:19:26;;;;;;;1.60;0.70;;;18.30;90.60;;;;;;10441614;28;20491;-86
2022/08/12 04:24:30;;;;;;;1.83;0.70;;;18.30;90.60;;;;;;10445948;28;20080;-86
2022/08/12 04:29:33;;;;;;;2.70;0.57;;;18.90;91.00;;;;;;10433029;28;20530;-86
2022/08/12 04:34:55;;;;;;;1.30;0.70;;;18.20;91.10;;;;;;10451679;28;20052;-86
2022/08/12 04:39:58;;;;;;;2.95;0.75;;;17.90;91.80;;;;;;10430643;28;20059;-86
2022/08/12 04:45:00;;;;;;;3.90;1.20;;;18.20;92.00;;;;;;10435509;28;20056;-86
2022/08/12 04:50:02;;;;;;;1.52;0.65;;;18.30;92.50;;;;;;10452848;28;20065;-86
2022/08/12 04:55:24;;;;;;;2.75;0.60;;;18.10;93.40;;;;;;10466555;28;20044;-86
2022/08/12 05:00:26;;;;;;;2.33;0.95;;;18.10;93.20;;;;;;10443362;28;20037;-86
2022/08/12 05:05:29;;;;;;;1.48;0.77;;;18.20;94.30;;;;;;10448077;28;20049;-86
2022/08/12 05:10:36;;;;;;;1.25;0.80;;;18.20;94.80;;;;;;10461615;28;20135;-86
2022/08/12 05:15:39;;;;;;;3.38;0.70;;;18.30;94.50;;;;;;10435349;28;20037;-86
2022/08/12 05:21:01;;;;;;;4.25;0.70;;;19.00;95.10;;;;;;10448668;28;20503;-89
2022/08/12 05:26:04;;;;;;;1.42;0.52;;;18.50;95.90;;;;;;10434691;28;20053;-89
2022/08/12 05:31:06;;;;;;;1.67;0.60;;;19.10;94.70;;;;;;10429167;28;20143;-89
2022/08/12 05:36:12;;;;;;;3.45;0.70;;;19.40;95.30;;;;;;10437877;28;20049;-89
2022/08/12 05:41:20;;;;;;;4.53;0.70;;;18.70;95.10;;;;;;10431916;28;20137;-89
2022/08/12 05:46:23;;;;;;;1.63;0.70;;;20.10;95.30;;;;;;10459417;28;20109;-89
2022/08/12 05:51:27;;;;;;;5.03;0.70;;;19.10;94.80;;;;;;10450927;28;20068;-89
2022/08/12 05:56:42;;;;;;;1.40;0.60;;;19.50;94.30;;;;;;10430178;28;20129;-89
2022/08/12 06:01:44;;;;;;;1.65;0.70;;;19.30;94.80;;;;;;10420520;28;20049;-90
2022/08/12 06:07:12;;;;;;;6.72;0.85;;;19.60;94.50;;;;;;10455742;28;20051;-91
2022/08/12 06:12:34;;;;;;;4.40;0.68;;;19.60;94.10;;;;;;10428622;28;20264;-92
2022/08/12 06:17:36;;;;;;;3.08;0.60;;;20.50;93.10;;;;;;10435152;28;20060;-88
2022/08/12 06:22:39;;;;;;;1.60;0.70;;;20.10;92.60;;;;;;10432204;28;20104;-88
2022/08/12 06:27:48;;;;;;;3.25;0.60;;;20.20;92.00;;;;;;10448907;28;20091;-88
2022/08/12 06:33:09;;;;;;;4.25;1.08;;;20.70;91.40;;;;;;10435429;28;20037;-84
2022/08/12 06:38:25;;;;;;;4.57;0.60;;;20.70;90.70;;;;;;10444304;28;20637;-86
2022/08/12 06:43:27;;;;;;;1.60;0.63;;;21.00;90.20;;;;;;10445064;28;20127;-85
2022/08/12 06:48:55;;;;;;;2.70;0.63;;;21.20;90.30;;;;;;10465382;28;20429;-86
2022/08/12 06:53:58;;;;;;;5.75;0.70;;;21.40;89.40;;;;;;10444586;28;20057;-86
2022/08/12 06:59:02;;;;;;;2.65;0.50;;;21.50;89.30;;;;;;10434607;28;20068;-86
2022/08/12 07:04:03;;;;;;;3.72;0.57;;;21.80;88.80;;;;;;10460481;28;20563;-85
2022/08/12 07:09:27;;;;;;;9.13;0.70;;;21.90;87.60;;;;;;10447418;28;20045;-86
2022/08/12 07:14:50;;;;;;;5.82;0.68;;;22.30;88.70;;;;;;10449687;28;20040;-85
2022/08/12 07:19:52;;;;;;;7.82;0.75;;;22.30;87.80;;;;;;10454106;28;20110;-86
2022/08/12 07:30:15;;;;;;;2.03;0.60;;;22.60;86.10;;;;;;10466829;28;20052;-85
2022/08/12 07:35:18;;;;;;;2.60;0.55;;;22.90;86.90;;;;;;10432482;28;20048;-86
2022/08/12 07:40:20;;;;;;;3.53;0.40;;;23.10;85.30;;;;;;10440962;28;20140;-87
2022/08/12 07:45:23;;;;;;;1.08;0.60;;;23.40;84.20;;;;;;10444414;28;20052;-84
2022/08/12 07:50:25;;;;;;;3.90;0.65;;;23.50;83.80;;;;;;10452864;28;20498;-83
2022/08/12 07:55:27;;;;;;;7.28;0.82;;;23.60;83.50;;;;;;10462904;28;20086;-83
2022/08/12 08:00:33;;;;;;;2.15;0.50;;;23.80;83.30;;;;;;10421720;28;20077;-83
2022/08/12 08:05:48;;;;;;;2.83;0.40;;;24.00;82.20;;;;;;10426361;28;20128;-84
2022/08/12 08:12:52;;;;;;;8.45;0.40;;;24.30;81.60;;;;;;10423208;28;20059;-84
2022/08/12 08:16:15;;;;;;;3.33;0.40;;;24.40;80.70;;;;;;10421169;28;20506;-84
2022/08/12 08:21:20;;;;;;;2.80;0.43;;;24.50;80.10;;;;;;10433804;28;20131;-87
2022/08/12 08:26:23;;;;;;;7.53;0.50;;;24.70;79.60;;;;;;10407870;28;20063;-88
2022/08/12 08:31:25;;;;;;;3.78;0.32;;;25.10;77.80;;;;;;10431965;28;20499;-87
2022/08/12 08:36:27;;;;;;;1.77;0.30;;;25.20;76.70;;;;;;10425427;28;20406;-89
2022/08/12 08:47:11;;;;;;;0.50;0.30;;;25.60;74.70;;;;;;10424618;28;20562;-89
2022/08/12 08:52:13;;;;;;;0.38;0.30;;;26.40;74.20;;;;;;10434045;28;20171;-89
2022/08/12 08:57:35;;;;;;;0.50;0.30;;;26.20;72.80;;;;;;10441816;28;20033;-87
2022/08/12 09:02:46;;;;;;;3.15;0.30;;;26.30;70.70;;;;;;10461637;28;20051;-87
2022/08/12 09:08:01;;;;;;;7.53;0.30;;;26.40;70.70;;;;;;10460943;28;20552;-87
2022/08/12 09:13:33;;;;;;;3.80;0.40;;;26.60;69.10;;;;;;10458273;28;20086;-89
2022/08/12 09:18:55;;;;;;;3.60;0.35;;;26.80;67.70;;;;;;10464013;28;20041;-87
2022/08/12 09:23:59;;;;;;;3.80;0.30;;;27.00;67.10;;;;;;10456137;28;20029;-88
2022/08/12 09:29:08;;;;;;;2.53;0.30;;;27.10;65.80;;;;;;10443802;28;20111;-87
2022/08/12 09:34:13;;;;;;;2.07;0.20;;;27.30;67.20;;;;;;10438824;28;20140;-89
2022/08/12 09:39:30;;;;;;;0.35;0.25;;;27.30;64.70;;;;;;10450095;28;20303;-88
2022/08/12 09:50:25;;;;;;;0.77;0.25;;;27.70;64.20;;;;;;10469432;28;20087;-88
2022/08/12 09:55:27;;;;;;;0.63;0.30;;;27.80;63.30;;;;;;10443115;28;20155;-89
2022/08/12 10:00:50;;;;;;;0.50;0.25;;;27.80;62.60;;;;;;10424937;28;20051;-87
2022/08/12 10:05:54;;;;;;;1.13;0.23;;;28.00;61.00;;;;;;10421719;28;20996;-87
2022/08/12 10:16:57;;;;;;;1.02;0.30;;;28.30;61.90;;;;;;10432715;28;20060;-88
2022/08/12 10:22:00;;;;;;;2.10;0.30;;;28.40;61.30;;;;;;10426674;28;20033;-90
2022/08/12 10:32:23;;;;;;;0.52;0.38;;;28.80;61.40;;;;;;10442929;28;20067;-89
2022/08/12 10:37:45;;;;;;;0.55;0.30;;;29.00;60.90;;;;;;10435004;28;20033;-90
2022/08/12 10:48:28;;;;;;;2.22;0.25;;;29.60;59.60;;;;;;10378955;28;20049;-88
2022/08/12 10:53:35;;;;;;;0.75;0.30;;;30.00;59.50;;;;;;10424809;28;20034;-89
2022/08/12 10:58:47;;;;;;;0.32;0.30;;;30.20;59.40;;;;;;10434184;28;20097;-89
2022/08/12 11:03:50;;;;;;;3.35;0.20;;;30.40;56.90;;;;;;10444008;28;20117;-88
2022/08/12 11:09:14;;;;;;;2.60;0.30;;;30.70;57.60;;;;;;10447640;28;20044;-89
2022/08/12 11:14:27;;;;;;;1.23;0.28;;;30.80;57.20;;;;;;10437109;28;20040;-90
2022/08/12 11:19:48;;;;;;;0.75;0.30;;;31.20;55.90;;;;;;10424321;28;20052;-89
2022/08/12 11:24:50;;;;;;;2.72;0.43;;;31.80;57.00;;;;;;10431847;28;20092;-89
2022/08/12 11:29:56;;;;;;;0.75;0.30;;;31.00;55.30;;;;;;10443193;28;20054;-89
2022/08/12 11:35:07;;;;;;;1.48;0.30;;;31.40;56.20;;;;;;10427419;28;20475;-89
2022/08/12 11:40:09;;;;;;;6.47;0.30;;;31.60;56.10;;;;;;10462010;28;20060;-88
2022/08/12 11:45:12;;;;;;;4.55;0.30;;;31.60;55.10;;;;;;10446562;28;20117;-87
2022/08/12 11:50:19;;;;;;;0.30;0.20;;;32.00;55.00;;;;;;10431977;28;20055;-88
2022/08/12 11:55:21;;;;;;;1.00;0.20;;;32.10;54.00;;;;;;10428184;28;20529;-88
2022/08/12 12:00:27;;;;;;;1.50;0.30;;;32.20;54.20;;;;;;10441035;28;20060;-88
2022/08/12 12:05:50;;;;;;;1.00;0.20;;;32.30;54.00;;;;;;10443171;28;20374;-89
2022/08/12 12:10:53;;;;;;;4.28;0.30;;;32.00;52.90;;;;;;10466245;28;20052;-89
2022/08/12 12:15:56;;;;;;;0.45;0.30;;;32.30;52.30;;;;;;10474062;28;20429;-89
2022/08/12 12:21:03;;;;;;;0.20;0.10;;;32.10;51.80;;;;;;10428075;28;20533;-89
2022/08/12 12:26:08;;;;;;;5.35;0.20;;;32.30;52.70;;;;;;10452754;28;20064;-88
2022/08/12 12:31:32;;;;;;;0.60;0.20;;;32.40;52.60;;;;;;10469989;28;20049;-89
2022/08/12 12:36:53;;;;;;;0.68;0.30;;;32.20;51.20;;;;;;10454220;28;20045;-89
2022/08/12 12:41:55;;;;;;;3.95;0.30;;;32.40;51.90;;;;;;10421661;28;20045;-90
2022/08/12 12:47:17;;;;;;;1.95;0.20;;;32.40;51.80;;;;;;10435012;28;20060;-90
2022/08/12 12:52:30;;;;;;;1.30;0.20;;;32.50;52.60;;;;;;10456961;28;20785;-91
2022/08/12 12:57:38;;;;;;;2.53;0.20;;;32.50;51.80;;;;;;10452867;28;20052;-90
2022/08/12 13:03:00;;;;;;;2.20;0.20;;;32.60;51.30;;;;;;10468387;28;20049;-91
2022/08/12 13:08:20;;;;;;;0.20;0.10;;;32.90;52.30;;;;;;10395841;28;20063;-93
2022/08/12 13:13:31;;;;;;;0.20;0.20;;;32.70;51.60;;;;;;10466832;28;20048;-89
2022/08/12 13:18:53;;;;;;;0.63;0.25;;;33.10;52.20;;;;;;10459990;28;20055;-89
2022/08/12 13:23:57;;;;;;;0.95;0.45;;;33.00;51.80;;;;;;10347009;28;20111;-91
2022/08/12 13:29:00;;;;;;;2.05;0.22;;;32.90;52.00;;;;;;10408023;28;20075;-90
2022/08/12 13:34:04;;;;;;;0.55;0.25;;;32.90;51.50;;;;;;10327493;28;20169;-91
2022/08/12 13:39:29;;;;;;;0.40;0.20;;;33.00;51.60;;;;;;10283036;28;20056;-91
2022/08/12 13:44:31;;;;;;;1.15;0.20;;;33.40;51.40;;;;;;10355382;28;20128;-91
2022/08/12 13:49:33;;;;;;;1.05;0.22;;;32.90;51.80;;;;;;10364816;28;20762;-91
2022/08/12 13:54:54;;;;;;;0.73;0.50;;;33.00;51.50;;;;;;10326025;28;20064;-91
2022/08/12 13:59:57;;;;;;;2.75;0.30;;;33.20;51.90;;;;;;10372483;28;20045;-91
2022/08/12 14:05:03;;;;;;;2.55;0.20;;;33.10;51.00;;;;;;10419760;28;20057;-90
2022/08/12 14:10:36;;;;;;;0.88;0.30;;;32.80;51.30;;;;;;10196303;28;20576;-90
2022/08/12 14:15:43;;;;;;;0.20;0.17;;;32.90;50.40;;;;;;10307552;28;20492;-90
2022/08/12 14:20:57;;;;;;;0.70;0.15;;;33.50;51.40;;;;;;10418259;28;20128;-91
2022/08/12 14:26:02;;;;;;;1.95;0.20;;;34.10;51.00;;;;;;10408231;28;20053;-90
2022/08/12 14:31:09;;;;;;;1.65;0.20;;;34.30;50.10;;;;;;10379028;28;20057;-91
2022/08/12 14:36:22;;;;;;;3.20;0.20;;;34.90;49.60;;;;;;10397745;28;20049;-91
2022/08/12 14:41:26;;;;;;;1.67;0.25;;;35.10;48.40;;;;;;10332735;28;20057;-91
2022/08/12 14:46:54;;;;;;;1.85;0.13;;;34.90;50.50;;;;;;10321279;28;20061;-91
2022/08/12 14:51:56;;;;;;;0.65;0.15;;;34.90;50.00;;;;;;10373098;28;20099;-91
2022/08/12 14:57:32;;;;;;;0.73;0.20;;;34.60;50.70;;;;;;10411027;28;20119;-91
2022/08/12 15:02:54;;;;;;;1.20;0.20;;;35.00;49.70;;;;;;10421917;28;20053;-90
2022/08/12 15:07:57;;;;;;;0.85;0.20;;;35.90;49.20;;;;;;10422715;28;20056;-90
2022/08/12 15:13:08;;;;;;;0.30;0.20;;;35.50;50.80;;;;;;10425777;28;20417;-91
2022/08/12 15:18:16;;;;;;;1.95;1.05;;;36.30;51.10;;;;;;10415313;28;20456;-90
2022/08/12 15:23:29;;;;;;;2.30;0.20;;;35.80;51.20;;;;;;10450097;28;20119;-90
2022/08/12 15:28:34;;;;;;;1.70;0.20;;;35.60;51.80;;;;;;10399779;28;20053;-91
2022/08/12 15:33:37;;;;;;;1.17;0.10;;;35.40;52.50;;;;;;10441942;28;20060;-90
2022/08/12 15:38:47;;;;;;;2.20;0.20;;;35.90;52.80;;;;;;10426552;28;20072;-91
2022/08/12 15:43:50;;;;;;;2.50;0.20;;;35.40;52.60;;;;;;10441962;28;20544;-91
2022/08/12 15:49:12;;;;;;;0.15;0.10;;;34.80;53.00;;;;;;10442465;28;20129;-91
2022/08/12 15:54:18;;;;;;;1.42;0.20;;;34.20;53.70;;;;;;10429606;28;20044;-91
2022/08/12 15:59:37;;;;;;;0.80;0.20;;;33.70;54.20;;;;;;10429057;28;20045;-91
2022/08/12 16:04:52;;;;;;;1.77;0.20;;;34.10;55.50;;;;;;10416623;28;20122;-91
2022/08/12 16:09:57;;;;;;;7.00;0.25;;;33.00;55.60;;;;;;10439544;28;20069;-90
2022/08/12 16:15:10;;;;;;;1.17;0.20;;;32.70;55.80;;;;;;10429696;28;20045;-90
2022/08/12 16:20:21;;;;;;;0.45;0.17;;;32.90;55.40;;;;;;10385099;28;20098;-91
2022/08/12 16:25:39;;;;;;;2.15;0.40;;;33.30;54.60;;;;;;10451441;28;20092;-90
2022/08/12 16:31:01;;;;;;;5.78;0.28;;;33.60;54.10;;;;;;10444231;28;20498;-90
2022/08/12 16:36:12;;;;;;;4.93;0.20;;;33.50;54.70;;;;;;10434260;28;20472;-90
2022/08/12 16:41:21;;;;;;;5.88;0.20;;;33.40;54.60;;;;;;10437210;28;20047;-90
2022/08/12 16:46:24;;;;;;;3.58;0.10;;;33.60;55.00;;;;;;10446351;28;20048;-91
2022/08/12 16:51:34;;;;;;;1.38;0.20;;;33.00;55.00;;;;;;10404022;28;20049;-90
2022/08/12 16:56:43;;;;;;;0.52;0.20;;;32.90;55.40;;;;;;10383579;28;20116;-91
2022/08/12 17:02:01;;;;;;;0.60;0.10;;;33.10;55.90;;;;;;10325863;28;20053;-90
2022/08/12 17:07:11;;;;;;;0.30;0.10;;;33.10;55.80;;;;;;10289185;28;21139;-91
2022/08/12 17:12:22;;;;;;;2.38;0.10;;;33.40;54.90;;;;;;10341665;28;20048;-91
2022/08/12 17:17:27;;;;;;;0.73;0.30;;;33.30;54.70;;;;;;10321912;28;20115;-91
2022/08/12 17:22:51;;;;;;;4.22;0.20;;;33.00;54.60;;;;;;10333930;28;20081;-91
2022/08/12 17:27:55;;;;;;;13.15;0.85;;;33.90;55.40;;;;;;10379420;28;20532;-90
2022/08/12 17:33:01;;;;;;;2.22;0.17;;;32.90;55.10;;;;;;10366258;28;20046;-90
2022/08/12 17:38:12;;;;;;;1.65;0.20;;;33.20;55.20;;;;;;10379131;28;20120;-90
2022/08/12 17:43:16;;;;;;;3.45;0.10;;;32.70;54.90;;;;;;10360476;28;20037;-90
2022/08/12 17:48:41;;;;;;;0.20;0.10;;;32.60;54.70;;;;;;10383535;28;20054;-90
2022/08/12 17:53:56;;;;;;;0.63;0.10;;;32.60;54.80;;;;;;10356445;28;20057;-90
2022/08/12 17:59:15;;;;;;;0.85;0.20;;;32.60;55.70;;;;;;10413217;28;20048;-91
2022/08/12 18:04:42;;;;;;;1.20;0.20;;;31.70;55.70;;;;;;10428583;28;20049;-91
2022/08/12 18:10:06;;;;;;;0.20;0.10;;;31.90;56.90;;;;;;10383164;28;20058;-91
2022/08/12 18:15:12;;;;;;;1.83;0.10;;;30.80;57.20;;;;;;10434119;28;20132;-90
2022/08/12 18:20:37;;;;;;;0.20;0.10;;;30.40;57.50;;;;;;10437514;28;20053;-90
2022/08/12 18:31:28;;;;;;;1.75;0.38;;;29.80;58.50;;;;;;10464184;28;20067;-90
2022/08/12 18:36:50;;;;;;;0.43;0.20;;;29.20;59.20;;;;;;10430956;28;20052;-91
2022/08/12 18:41:58;;;;;;;0.40;0.20;;;29.00;59.70;;;;;;10451512;28;20063;-90
2022/08/12 18:47:05;;;;;;;1.23;0.45;;;28.70;60.20;;;;;;10432765;28;20053;-90
2022/08/12 18:52:09;;;;;;;1.30;0.60;;;28.40;62.00;;;;;;10425489;28;20064;-90
2022/08/12 18:57:14;;;;;;;1.83;0.40;;;27.80;63.50;;;;;;10446006;28;20056;-90
2022/08/12 19:02:36;;;;;;;1.83;0.60;;;27.90;63.40;;;;;;10436725;28;20047;-89
2022/08/12 19:07:44;;;;;;;2.05;0.45;;;27.50;63.70;;;;;;10433944;28;20049;-89
2022/08/12 19:18:27;;;;;;;;;;;27.10;65.10;;;;;;10455875;28;20064;-89
2022/08/12 19:23:34;;;;;;;2.95;0.30;;;26.60;64.40;;;;;;10437084;28;20349;-89
2022/08/12 19:28:36;;;;;;;2.47;0.30;;;26.50;66.30;;;;;;10449188;28;20036;-90
2022/08/12 19:33:39;;;;;;;1.35;0.70;;;26.10;67.40;;;;;;10439666;28;20078;-90
2022/08/12 19:38:58;;;;;;;0.70;0.30;;;25.80;67.20;;;;;;10448724;28;20123;-90
2022/08/12 19:44:01;;;;;;;1.40;0.20;;;25.30;67.70;;;;;;10443805;28;20021;-89
2022/08/12 19:49:21;;;;;;;1.35;0.30;;;25.30;66.50;;;;;;10450514;28;20139;-89
2022/08/12 19:54:24;;;;;;;1.55;0.32;;;25.50;68.40;;;;;;10457796;28;20055;-89
2022/08/12 19:59:34;;;;;;;1.23;0.32;;;24.80;68.80;;;;;;10439474;28;20102;-90
2022/08/12 20:04:57;;;;;;;7.22;0.60;;;25.10;70.30;;;;;;10437291;28;20045;-89
2022/08/12 20:10:20;;;;;;;2.17;0.50;;;25.20;70.40;;;;;;10419815;28;20445;-90
2022/08/12 20:15:23;;;;;;;6.18;0.50;;;24.40;70.40;;;;;;10430531;28;20416;-89
2022/08/12 20:20:45;;;;;;;2.50;0.50;;;24.20;70.70;;;;;;10458761;28;20063;-90
2022/08/12 20:25:48;;;;;;;3.78;0.80;;;24.00;71.90;;;;;;10441457;28;20052;-89
2022/08/12 20:31:00;;;;;;;2.05;0.80;;;23.70;71.30;;;;;;10458186;28;20055;-89
2022/08/12 20:36:02;;;;;;;0.88;0.30;;;23.60;71.30;;;;;;10462707;28;20146;-88
2022/08/12 20:41:25;;;;;;;6.38;0.40;;;23.50;71.20;;;;;;10437385;28;20135;-88
2022/08/12 20:46:32;;;;;;;2.75;0.70;;;23.30;72.60;;;;;;10456081;28;20127;-88
2022/08/12 20:51:34;;;;;;;6.93;0.80;;;23.20;73.60;;;;;;10447480;28;21073;-88
2022/08/12 20:56:56;;;;;;;2.53;0.47;;;23.00;73.70;;;;;;10465435;28;20073;-89
2022/08/12 21:02:01;;;;;;;0.93;0.50;;;22.80;73.30;;;;;;10461847;28;20060;-88
2022/08/12 21:07:08;;;;;;;2.92;0.65;;;22.80;72.50;;;;;;10439379;28;20036;-88
2022/08/12 21:12:17;;;;;;;3.83;0.30;;;22.60;72.00;;;;;;10441330;28;20107;-88
2022/08/12 21:17:38;;;;;;;1.70;0.30;;;22.70;71.50;;;;;;10439725;28;20132;-88
2022/08/12 21:23:03;;;;;;;6.00;0.50;;;22.60;71.20;;;;;;10457695;28;20052;-87
2022/08/12 21:28:06;;;;;;;2.13;0.20;;;22.70;71.60;;;;;;10438372;28;20071;-88
2022/08/12 21:33:09;;;;;;;2.90;0.30;;;22.40;71.50;;;;;;10453570;28;20048;-88
2022/08/12 21:38:17;;;;;;;1.13;0.20;;;22.50;71.30;;;;;;10443323;28;20052;-88
2022/08/12 21:43:19;;;;;;;1.15;0.20;;;22.50;71.30;;;;;;10456125;28;20044;-88
2022/08/12 21:48:23;;;;;;;0.75;0.22;;;22.30;71.40;;;;;;10436477;28;20045;-87
2022/08/12 21:53:26;;;;;;;1.02;0.22;;;22.20;72.10;;;;;;10440935;28;20429;-88
2022/08/12 21:58:48;;;;;;;0.57;0.20;;;22.10;71.70;;;;;;10468503;28;20055;-88
2022/08/12 22:09:13;;;;;;;3.22;0.20;;;22.70;72.40;;;;;;10425408;28;20049;-88
2022/08/12 22:14:19;;;;;;;4.50;0.25;;;22.10;72.30;;;;;;10455296;28;20103;-87
2022/08/12 22:19:24;;;;;;;0.20;0.15;;;22.10;73.00;;;;;;10447720;28;20054;-87
2022/08/12 22:24:27;;;;;;;0.40;0.30;;;22.00;73.20;;;;;;10465085;28;20052;-88
2022/08/12 22:35:27;;;;;;;0.50;0.20;;;21.80;73.50;;;;;;10467798;28;20054;-87
2022/08/12 22:40:25;;;;;;;0.25;0.20;;;21.80;73.90;;;;;;10485507;28;20041;-87
2022/08/12 22:50:57;;;;;;;0.60;0.20;;;21.50;73.60;;;;;;10459967;28;20111;-88
2022/08/12 22:56:00;;;;;;;1.23;0.20;;;21.70;73.80;;;;;;10464473;28;20048;-87
2022/08/12 23:01:09;;;;;;;0.30;0.20;;;21.50;74.40;;;;;;10470261;28;20067;-87
2022/08/12 23:06:12;;;;;;;0.68;0.40;;;21.10;74.50;;;;;;10469998;28;20075;-87
2022/08/12 23:11:14;;;;;;;1.17;0.25;;;21.60;75.70;;;;;;10439710;28;20098;-87
2022/08/12 23:16:19;;;;;;;4.68;0.30;;;21.60;76.20;;;;;;10441771;28;20112;-87
2022/08/12 23:21:33;;;;;;;0.73;0.40;;;21.40;76.40;;;;;;10438315;28;20126;-87
2022/08/12 23:32:25;;;;;;;0.95;0.55;;;20.50;79.10;;;;;;10466770;28;20098;-87
2022/08/12 23:37:37;;;;;;;1.17;0.47;;;20.70;79.70;;;;;;10447434;28;20029;-87
2022/08/12 23:42:55;;;;;;;4.20;0.40;;;20.30;79.60;;;;;;10467357;28;20127;-87
2022/08/12 23:47:59;;;;;;;0.65;0.35;;;20.70;79.90;;;;;;10452300;28;20048;-87
2022/08/12 23:53:05;;;;;;;0.70;0.40;;;20.50;80.20;;;;;;10446848;28;20044;-88
2022/08/12 23:58:27;;;;;;;4.43;0.40;;;20.40;80.40;;;;;;10458143;28;20098;-87
